createdAt,value
2023-05-06T00:00:40.213Z,57.63
2023-05-06T00:03:07.561Z,57.26
2023-05-06T00:05:34.982Z,57.55
2023-05-06T00:08:02.187Z,57.64
2023-05-06T00:10:29.419Z,57.57
2023-05-06T00:12:57.016Z,58.06
2023-05-06T00:15:24.633Z,58.61
2023-05-06T00:17:51.820Z,58.48
2023-05-06T00:20:19.137Z,58.61
2023-05-06T00:22:46.610Z,58.30
2023-05-06T00:25:14.051Z,58.52
2023-05-06T00:27:41.507Z,58.50
2023-05-06T00:30:10.061Z,59.27
2023-05-06T00:32:37.456Z,58.66
2023-05-06T00:35:05.132Z,58.75
2023-05-06T00:37:32.374Z,59.08
2023-05-06T00:39:59.562Z,58.87
2023-05-06T00:42:27.199Z,59.05
2023-05-06T00:44:54.550Z,59.16
2023-05-06T00:47:22.973Z,59.59
2023-05-06T00:49:51.756Z,60.14
2023-05-06T00:52:20.548Z,59.67
2023-05-06T00:54:48.186Z,59.65
2023-05-06T00:57:15.652Z,60.22
2023-05-06T00:59:43.245Z,60.45
2023-05-06T01:05:13.295Z,60.17
2023-05-06T01:07:43.959Z,60.70
2023-05-06T01:10:23.082Z,61.56
2023-05-06T01:13:10.590Z,60.55
2023-05-06T01:15:54.993Z,60.87
2023-05-06T01:18:26.985Z,60.83
2023-05-06T01:21:23.718Z,60.85
2023-05-06T01:24:30.989Z,60.58
2023-05-06T01:27:03.147Z,61.67
2023-05-06T01:30:01.743Z,61.09
2023-05-06T01:32:46.443Z,61.71
2023-05-06T01:35:51.310Z,61.80
2023-05-06T01:38:52.244Z,61.89
2023-05-06T01:41:34.427Z,61.37
2023-05-06T01:44:08.990Z,61.49
2023-05-06T01:46:45.155Z,62.17
2023-05-06T01:49:36.062Z,61.81
2023-05-06T01:52:40.929Z,62.31
2023-05-06T01:56:02.512Z,61.81
2023-05-06T01:58:59.576Z,62.38
2023-05-06T02:01:57.355Z,62.79
2023-05-06T02:04:49.084Z,62.19
2023-05-06T02:07:37.983Z,62.52
2023-05-06T02:11:04.491Z,62.52
2023-05-06T02:13:42.730Z,62.74
2023-05-06T02:16:35.602Z,62.59
2023-05-06T02:19:45.190Z,63.27
2023-05-06T02:22:58.230Z,62.79
2023-05-06T02:26:17.564Z,62.73
2023-05-06T02:29:25.651Z,63.62
2023-05-06T02:32:18.874Z,63.27
2023-05-06T02:34:48.030Z,63.12
2023-05-06T02:37:39.415Z,62.89
2023-05-06T02:40:10.403Z,63.09
2023-05-06T02:42:44.733Z,63.45
2023-05-06T02:45:39.353Z,63.45
2023-05-06T02:48:35.310Z,63.11
2023-05-06T02:51:22.440Z,63.15
2023-05-06T02:53:56.589Z,63.14
2023-05-06T02:57:03.607Z,63.50
2023-05-06T03:00:24.459Z,63.10
2023-05-06T03:03:23.157Z,63.36
2023-05-06T03:06:40.936Z,63.36
2023-05-06T03:10:28.857Z,63.52
2023-05-06T03:14:11.039Z,63.85
2023-05-06T03:17:10.636Z,63.56
2023-05-06T03:20:27.756Z,63.40
2023-05-06T03:23:33.432Z,63.37
2023-05-06T03:26:37.271Z,63.41
2023-05-06T03:29:48.524Z,63.52
2023-05-06T03:33:06.063Z,63.36
2023-05-06T03:36:22.077Z,63.40
2023-05-06T03:39:40.513Z,63.10
2023-05-06T03:42:30.354Z,63.07
2023-05-06T03:45:35.067Z,63.17
2023-05-06T03:48:43.902Z,63.46
2023-05-06T03:51:51.363Z,63.48
2023-05-06T03:54:58.462Z,63.53
2023-05-06T03:58:25.601Z,63.33
2023-05-06T04:01:31.871Z,63.48
2023-05-06T04:04:13.190Z,63.21
2023-05-06T04:07:43.193Z,63.15
2023-05-06T04:11:10.546Z,63.58
2023-05-06T04:14:37.477Z,63.30
2023-05-06T04:18:04.809Z,63.17
2023-05-06T04:21:30.944Z,63.47
2023-05-06T04:24:58.429Z,63.38
2023-05-06T04:28:27.958Z,64.19
2023-05-06T04:31:56.452Z,64.12
2023-05-06T04:34:58.849Z,64.06
2023-05-06T04:38:17.611Z,64.17
2023-05-06T04:41:27.663Z,64.24
2023-05-06T04:44:17.802Z,64.21
2023-05-06T04:47:26.026Z,64.44
2023-05-06T04:50:34.936Z,64.59
2023-05-06T04:54:02.040Z,64.30
2023-05-06T04:57:28.866Z,64.24
2023-05-06T05:00:32.269Z,64.55
2023-05-06T05:03:47.035Z,64.31
2023-05-06T05:06:41.985Z,64.28
2023-05-06T05:09:54.460Z,64.27
2023-05-06T05:13:02.459Z,64.32
2023-05-06T05:16:25.367Z,64.39
2023-05-06T05:20:10.717Z,64.49
2023-05-06T05:23:30.847Z,64.36
2023-05-06T05:26:55.204Z,63.94
2023-05-06T05:30:02.889Z,63.94
2023-05-06T05:33:09.829Z,63.74
2023-05-06T05:36:29.472Z,64.00
2023-05-06T05:39:51.138Z,63.70
2023-05-06T05:42:25.569Z,63.77
2023-05-06T05:45:55.761Z,64.03
2023-05-06T05:49:42.641Z,63.54
2023-05-06T05:53:24.282Z,63.21
2023-05-06T05:57:11.269Z,62.85
2023-05-06T06:00:49.219Z,62.54
2023-05-06T06:04:27.519Z,62.15
2023-05-06T06:07:07.399Z,62.23
2023-05-06T06:10:43.102Z,61.99
2023-05-06T06:14:39.951Z,61.69
2023-05-06T06:18:36.356Z,62.08
2023-05-06T06:22:36.948Z,61.91
2023-05-06T06:40:34.218Z,60.34
2023-05-06T06:43:01.634Z,60.27
2023-05-06T06:45:28.983Z,60.05
2023-05-06T06:47:56.381Z,60.23
2023-05-06T06:50:23.568Z,60.08
2023-05-06T06:52:50.725Z,59.84
2023-05-06T06:55:18.075Z,59.77
2023-05-06T06:57:45.179Z,59.39
2023-05-06T07:00:12.908Z,58.80
2023-05-06T07:02:40.547Z,59.14
2023-05-06T07:05:08.202Z,59.25
2023-05-06T07:07:35.848Z,59.46
2023-05-06T07:10:03.526Z,59.02
2023-05-06T07:12:30.753Z,58.99
2023-05-06T07:14:58.119Z,58.99
2023-05-06T07:17:25.502Z,59.20
2023-05-06T07:19:52.700Z,58.96
2023-05-06T07:22:19.910Z,59.03
2023-05-06T07:24:47.368Z,57.80
2023-05-06T07:27:14.601Z,58.20
2023-05-06T07:29:41.769Z,57.91
2023-05-06T07:32:10.032Z,57.89
2023-05-06T07:34:37.420Z,57.96
2023-05-06T07:37:05.040Z,57.64
2023-05-06T07:39:33.027Z,57.90
2023-05-06T07:42:00.378Z,57.35
2023-05-06T07:44:27.478Z,57.40
2023-05-06T07:46:54.794Z,57.46
2023-05-06T07:49:22.324Z,57.34
2023-05-06T07:51:49.511Z,57.33
2023-05-06T07:54:16.769Z,57.28
2023-05-06T07:56:44.429Z,57.50
2023-05-06T07:59:12.405Z,57.67
2023-05-06T08:01:39.861Z,57.52
2023-05-06T08:04:08.061Z,57.07
2023-05-06T08:06:35.241Z,57.53
2023-05-06T08:09:03.442Z,57.76
2023-05-06T08:11:30.605Z,57.58
2023-05-06T08:13:57.806Z,57.64
2023-05-06T08:16:25.724Z,57.49
2023-05-06T08:18:53.050Z,57.54
2023-05-06T08:21:20.478Z,57.58
2023-05-06T08:23:47.693Z,57.18
2023-05-06T08:26:14.876Z,57.02
2023-05-06T08:28:42.068Z,57.37
2023-05-06T08:31:09.802Z,57.50
2023-05-06T08:33:36.980Z,57.52
2023-05-06T08:36:04.362Z,57.74
2023-05-06T08:38:31.679Z,57.80
2023-05-06T08:41:03.800Z,57.70
2023-05-06T08:43:35.859Z,57.96
2023-05-06T08:46:03.084Z,58.13
2023-05-06T08:48:30.406Z,58.18
2023-05-06T08:51:02.346Z,58.23
2023-05-06T08:53:30.720Z,58.32
2023-05-06T08:56:01.171Z,58.40
2023-05-06T08:58:28.542Z,58.57
2023-05-06T09:00:55.772Z,58.38
2023-05-06T09:03:23.219Z,58.50
2023-05-06T09:05:50.807Z,58.88
2023-05-06T09:08:18.106Z,58.60
2023-05-06T09:10:46.660Z,58.86
2023-05-06T09:13:15.474Z,59.03
2023-05-06T09:15:44.556Z,59.17
2023-05-06T09:18:12.460Z,59.14
2023-05-06T09:20:50.028Z,59.16
2023-05-06T09:23:18.630Z,59.35
2023-05-06T09:25:47.716Z,59.66
2023-05-06T09:28:15.897Z,59.64
2023-05-06T09:30:45.575Z,59.52
2023-05-06T09:33:13.095Z,59.44
2023-05-06T09:35:43.457Z,59.49
2023-05-06T09:38:10.933Z,59.77
2023-05-06T09:40:39.308Z,59.79
2023-05-06T09:43:07.214Z,59.95
2023-05-06T09:45:34.587Z,59.69
2023-05-06T09:48:01.892Z,60.09
2023-05-06T09:50:29.660Z,59.51
2023-05-06T09:52:57.181Z,59.35
2023-05-06T09:55:27.402Z,59.35
2023-05-06T09:57:56.816Z,59.59
2023-05-06T10:00:28.461Z,59.54
2023-05-06T10:02:56.711Z,59.45
2023-05-06T10:05:27.296Z,59.58
2023-05-06T10:07:57.639Z,59.32
2023-05-06T10:10:25.610Z,59.38
2023-05-06T10:12:53.488Z,59.21
2023-05-06T10:15:20.815Z,59.49
2023-05-06T10:17:50.966Z,59.69
2023-05-06T10:20:19.982Z,59.83
2023-05-06T10:23:10.971Z,60.60
2023-05-06T10:25:43.161Z,62.80
2023-05-06T10:28:16.649Z,63.06
2023-05-06T10:30:56.343Z,64.29
2023-05-06T10:33:25.316Z,64.88
2023-05-06T10:36:01.719Z,65.26
2023-05-06T10:38:38.556Z,66.09
2023-05-06T10:41:09.027Z,66.62
2023-05-06T10:43:41.924Z,66.91
2023-05-06T10:46:17.740Z,67.36
2023-05-06T10:49:09.168Z,67.74
2023-05-06T10:51:37.584Z,68.05
2023-05-06T10:54:09.566Z,68.52
2023-05-06T10:57:03.060Z,68.65
2023-05-06T10:59:31.640Z,68.78
2023-05-06T11:02:05.573Z,69.09
2023-05-06T11:04:35.675Z,69.38
2023-05-06T11:07:14.789Z,69.46
2023-05-06T11:10:00.040Z,69.55
2023-05-06T11:12:47.125Z,69.98
2023-05-06T11:15:37.541Z,70.60
2023-05-06T11:18:37.460Z,70.68
2023-05-06T11:21:07.494Z,71.26
2023-05-06T11:23:43.885Z,71.30
2023-05-06T11:26:12.425Z,71.53
2023-05-06T11:28:45.079Z,72.40
2023-05-06T11:31:22.905Z,72.41
2023-05-06T11:33:59.193Z,72.26
2023-05-06T11:36:28.897Z,72.52
2023-05-06T11:39:00.199Z,73.72
2023-05-06T11:41:27.581Z,72.98
2023-05-06T11:43:54.903Z,73.05
2023-05-06T11:46:24.090Z,73.02
2023-05-06T11:48:51.554Z,73.37
2023-05-06T11:51:25.149Z,73.90
2023-05-06T11:53:53.740Z,74.91
2023-05-06T11:56:21.301Z,76.43
2023-05-06T11:58:49.242Z,75.69
2023-05-06T12:01:16.426Z,77.26
2023-05-06T12:03:43.849Z,76.62
2023-05-06T12:06:13.305Z,77.55
2023-05-06T12:08:40.749Z,77.78
2023-05-06T12:11:09.380Z,77.64
2023-05-06T12:13:37.378Z,77.92
2023-05-06T12:16:05.520Z,77.61
2023-05-06T12:18:33.034Z,77.37
2023-05-06T12:21:06.998Z,77.67
2023-05-06T12:23:34.289Z,77.95
2023-05-06T12:26:06.997Z,78.41
2023-05-06T12:29:48.949Z,77.87
2023-05-06T12:33:39.139Z,78.66
2023-05-06T12:37:26.448Z,78.96
2023-05-06T12:41:13.857Z,79.96
2023-05-06T12:45:17.179Z,79.25
2023-05-06T12:48:56.294Z,79.54
2023-05-06T12:52:49.638Z,79.29
2023-05-06T12:56:47.179Z,79.39
2023-05-06T13:00:15.559Z,79.36
2023-05-06T13:03:57.366Z,78.90
2023-05-06T13:07:33.926Z,78.64
2023-05-06T13:11:04.963Z,78.69
2023-05-06T13:14:44.914Z,78.63
2023-05-06T13:18:28.361Z,78.46
2023-05-06T13:22:16.466Z,79.32
2023-05-06T13:26:06.154Z,79.87
2023-05-06T13:29:52.790Z,79.57
2023-05-06T13:33:20.800Z,79.36
2023-05-06T13:37:08.533Z,79.48
2023-05-06T13:40:58.417Z,79.46
2023-05-06T13:44:46.895Z,79.58
2023-05-06T13:48:37.499Z,79.55
2023-05-06T13:52:27.634Z,79.58
2023-05-06T13:56:22.610Z,79.68
2023-05-06T14:00:09.759Z,79.69
2023-05-06T14:03:58.876Z,80.15
2023-05-06T14:07:49.495Z,80.36
2023-05-06T14:11:43.198Z,80.20
2023-05-06T14:15:33.228Z,79.94
2023-05-06T14:19:22.373Z,80.00
2023-05-06T14:23:12.904Z,80.01
2023-05-06T14:27:00.523Z,79.93
2023-05-06T14:30:52.837Z,80.07
2023-05-06T14:34:40.553Z,80.08
2023-05-06T14:38:37.583Z,80.25
2023-05-06T14:42:25.398Z,80.14
2023-05-06T14:46:21.902Z,79.97
2023-05-06T14:50:08.682Z,79.95
2023-05-06T14:53:56.050Z,79.90
2023-05-06T14:57:31.878Z,79.94
2023-05-06T15:00:59.508Z,79.78
2023-05-06T15:04:46.989Z,80.19
2023-05-06T15:08:34.151Z,79.75
2023-05-06T15:12:02.898Z,79.74
2023-05-06T15:15:30.503Z,79.66
2023-05-06T15:19:17.906Z,79.64
2023-05-06T15:22:46.476Z,79.51
2023-05-06T15:26:33.693Z,79.80
2023-05-06T15:30:20.709Z,79.43
2023-05-06T15:34:14.204Z,79.50
2023-05-06T15:38:01.776Z,79.61
2023-05-06T15:41:51.882Z,79.42
2023-05-06T15:45:39.002Z,79.33
2023-05-06T15:49:49.303Z,79.24
2023-05-06T16:06:25.876Z,79.15
2023-05-06T16:10:29.142Z,79.11
2023-05-06T16:14:16.921Z,79.12
2023-05-06T16:18:04.550Z,79.36
2023-05-06T16:21:52.213Z,79.37
2023-05-06T16:25:40.610Z,79.35
2023-05-06T16:29:33.191Z,79.43
2023-05-06T16:33:20.687Z,79.40
2023-05-06T16:37:08.219Z,79.40
2023-05-06T16:40:55.489Z,79.37
2023-05-06T16:44:43.076Z,79.49
2023-05-06T16:48:38.046Z,79.16
2023-05-06T16:52:25.489Z,79.32
2023-05-06T17:00:19.995Z,79.00
2023-05-06T17:04:11.669Z,79.07
2023-05-06T17:08:08.728Z,79.51
2023-05-06T17:11:56.135Z,79.19
2023-05-06T17:15:43.904Z,79.26
2023-05-06T17:19:35.904Z,79.16
2023-05-06T17:22:46.037Z,79.21
2023-05-06T17:26:33.498Z,79.23
2023-05-06T17:30:02.584Z,79.34
2023-05-06T17:33:29.822Z,79.58
2023-05-06T17:37:19.181Z,79.64
2023-05-06T17:41:07.036Z,79.54
2023-05-06T17:44:56.934Z,79.63
2023-05-06T17:48:55.678Z,79.73
2023-05-06T17:52:47.420Z,79.78
2023-05-06T17:56:45.151Z,79.59
2023-05-06T18:00:40.729Z,79.54
2023-05-06T18:04:28.841Z,79.96
2023-05-06T18:08:18.290Z,79.75
2023-05-06T18:11:57.001Z,79.91
2023-05-06T18:15:44.275Z,79.79
2023-05-06T18:19:33.059Z,79.62
2023-05-06T18:23:20.854Z,79.79
2023-05-06T18:27:09.633Z,79.76
2023-05-06T18:35:15.739Z,79.82
2023-05-06T18:37:42.968Z,79.68
2023-05-06T18:40:10.498Z,79.58
2023-05-06T18:42:38.468Z,79.81
2023-05-06T18:45:07.424Z,79.94
2023-05-06T18:47:34.762Z,79.86
2023-05-06T18:50:02.787Z,79.72
2023-05-06T18:52:29.940Z,79.72
2023-05-06T18:54:57.141Z,79.99
2023-05-06T18:57:26.887Z,80.44
2023-05-06T18:59:54.057Z,80.18
2023-05-06T19:02:21.282Z,80.41
2023-05-06T19:04:48.784Z,80.26
2023-05-06T19:07:16.472Z,80.14
2023-05-06T19:09:43.684Z,80.36
2023-05-06T19:12:11.117Z,80.40
2023-05-06T19:14:38.531Z,80.58
2023-05-06T19:17:05.900Z,80.76
2023-05-06T19:19:33.547Z,80.32
2023-05-06T19:22:02.125Z,80.46
2023-05-06T19:24:30.396Z,80.43
2023-05-06T19:26:58.138Z,80.32
2023-05-06T19:29:25.415Z,80.56
2023-05-06T19:31:52.676Z,80.43
2023-05-06T19:34:20.306Z,80.57
2023-05-06T19:36:47.919Z,80.48
2023-05-06T19:39:16.686Z,80.77
2023-05-06T19:41:43.963Z,80.53
2023-05-06T19:44:11.352Z,80.88
2023-05-06T19:46:38.693Z,80.67
2023-05-06T19:49:07.328Z,80.84
2023-05-06T19:51:34.973Z,80.80
2023-05-06T19:54:02.129Z,80.81
2023-05-06T19:56:29.890Z,80.82
2023-05-06T19:58:57.053Z,80.85
2023-05-06T20:01:24.888Z,81.14
2023-05-06T20:03:52.586Z,81.12
2023-05-06T20:06:19.983Z,81.06
2023-05-06T20:08:47.222Z,81.10
2023-05-06T20:11:14.697Z,81.09
2023-05-06T20:13:41.945Z,80.84
2023-05-06T20:16:09.502Z,80.62
2023-05-06T20:18:37.643Z,80.60
2023-05-06T20:21:05.219Z,80.69
2023-05-06T20:23:32.548Z,80.58
2023-05-06T20:25:59.815Z,80.66
2023-05-06T20:28:27.262Z,80.71
2023-05-06T20:30:55.960Z,80.46
2023-05-06T20:33:23.292Z,80.46
2023-05-06T20:35:51.524Z,80.55
2023-05-06T20:38:19.853Z,80.34
2023-05-06T20:40:48.536Z,80.26
2023-05-06T20:43:16.600Z,80.65
2023-05-06T20:45:44.255Z,80.35
2023-05-06T20:48:13.602Z,80.34
2023-05-06T20:50:42.427Z,80.36
2023-05-06T20:53:09.538Z,80.07
2023-05-06T20:55:37.037Z,80.04
2023-05-06T20:58:04.790Z,80.16
2023-05-06T21:00:32.253Z,80.22
2023-05-06T21:02:59.798Z,80.17
2023-05-06T21:05:27.212Z,80.34
2023-05-06T21:07:54.317Z,80.18
2023-05-06T21:10:21.770Z,80.04
2023-05-06T21:12:50.644Z,80.07
2023-05-06T21:15:18.357Z,79.92
2023-05-06T21:17:46.090Z,80.13
2023-05-06T21:20:13.765Z,80.04
2023-05-06T21:22:41.024Z,79.60
2023-05-06T21:25:09.380Z,79.72
2023-05-06T21:27:36.748Z,79.72
2023-05-06T21:30:04.271Z,79.92
2023-05-06T21:32:33.598Z,79.58
2023-05-06T21:35:03.930Z,79.88
2023-05-06T21:37:31.313Z,79.84
2023-05-06T21:39:58.539Z,79.76
2023-05-06T21:42:25.800Z,79.93
2023-05-06T21:44:52.908Z,79.92
2023-05-06T21:47:20.412Z,79.75
2023-05-06T21:49:47.634Z,79.89
2023-05-06T21:52:14.935Z,79.89
2023-05-06T21:54:42.883Z,79.84
2023-05-06T21:57:10.229Z,79.79
2023-05-06T21:59:37.341Z,80.02
2023-05-06T22:02:05.085Z,79.90
2023-05-06T22:04:32.516Z,79.83
2023-05-06T22:06:59.797Z,79.93
2023-05-06T22:09:27.097Z,80.06
2023-05-06T22:11:54.308Z,80.06
2023-05-06T22:14:24.345Z,79.94
2023-05-06T22:16:55.009Z,80.12
2023-05-06T22:19:22.973Z,80.03
2023-05-06T22:21:50.240Z,80.11
2023-05-06T22:24:18.008Z,79.93
2023-05-06T22:26:45.302Z,79.96
2023-05-06T22:29:12.506Z,79.97
2023-05-06T22:31:40.326Z,79.92
2023-05-06T22:34:07.558Z,80.20
2023-05-06T22:36:34.917Z,80.15
2023-05-06T22:39:02.614Z,80.06
2023-05-06T22:41:31.133Z,80.15
2023-05-06T22:44:00.654Z,80.07
2023-05-06T22:46:29.206Z,80.15
2023-05-06T22:48:56.486Z,80.12
2023-05-06T22:51:23.556Z,80.33
2023-05-06T22:53:50.836Z,80.16
2023-05-06T22:56:19.452Z,80.11
2023-05-06T22:58:46.762Z,80.22
2023-05-06T23:01:14.245Z,80.41
2023-05-06T23:03:41.478Z,80.28
2023-05-06T23:06:08.877Z,80.38
2023-05-06T23:08:36.533Z,80.09
2023-05-06T23:11:03.798Z,80.32
2023-05-06T23:13:36.481Z,80.46
2023-05-06T23:16:04.172Z,80.33
2023-05-06T23:18:31.351Z,80.45
2023-05-06T23:20:58.596Z,80.38
2023-05-06T23:23:25.857Z,80.29
2023-05-06T23:25:53.718Z,80.19
2023-05-06T23:28:21.619Z,80.35
2023-05-06T23:30:49.360Z,80.12
2023-05-06T23:33:16.688Z,80.19
2023-05-06T23:35:43.813Z,80.30
2023-05-06T23:38:11.114Z,80.32
2023-05-06T23:40:38.316Z,80.22
2023-05-06T23:43:07.608Z,80.03
2023-05-06T23:45:35.097Z,80.10
2023-05-06T23:48:02.445Z,80.17
2023-05-06T23:50:29.785Z,80.21
2023-05-06T23:52:56.933Z,80.24
2023-05-06T23:55:26.577Z,80.18
2023-05-06T23:57:53.863Z,80.14
